Time;durP1;ratioP1;P1;durP2;ratioP2;P2;SDS_P1;SDS_P2;PMS_P1;PMS_P2;Temp;Humidity;BMP_temperature;BMP_pressure;BME280_temperature;BME280_humidity;BME280_pressure;Samples;Min_cycle;Max_cycle;Signal;HPM_P1;HPM_P2
2022/06/08 00:01:11;;;;;;;10.93;5.40;;;;;;;;;;4976980;28;20544;-58
2022/06/08 00:03:46;;;;;;;8.88;5.10;;;;;;;;;;4980763;28;20050;-45
2022/06/08 00:06:14;;;;;;;14.25;5.50;;;;;;;;;;4978690;28;20047;-62
2022/06/08 00:08:40;;;;;;;4.82;3.78;;;;;;;;;;4977646;28;20160;-63
2022/06/08 00:11:14;;;;;;;11.23;4.68;;;;;;;;;;4978438;28;20101;-61
2022/06/08 00:13:42;;;;;;;9.88;4.88;;;;;;;;;;4977889;28;20082;-62
2022/06/08 00:16:09;;;;;;;6.65;4.20;;;;;;;;;;4977532;28;20051;-62
2022/06/08 00:18:43;;;;;;;9.30;4.22;;;;;;;;;;4982404;28;20050;-63
2022/06/08 00:21:10;;;;;;;9.23;3.75;;;;;;;;;;4983505;28;20046;-62
2022/06/08 00:23:37;;;;;;;9.88;3.97;;;;;;;;;;4982741;28;20081;-47
2022/06/08 00:26:10;;;;;;;8.70;4.05;;;;;;;;;;4983474;28;20046;-60
2022/06/08 00:28:37;;;;;;;11.02;4.25;;;;;;;;;;4982104;28;20225;-59
2022/06/08 00:31:03;;;;;;;12.32;4.00;;;;;;;;;;4979736;28;20461;-59
2022/06/08 00:33:37;;;;;;;9.02;3.80;;;;;;;;;;4980516;28;20510;-59
2022/06/08 00:36:10;;;;;;;8.75;4.30;;;;;;;;;;4981262;28;20089;-59
2022/06/08 00:38:50;;;;;;;8.38;3.63;;;;;;;;;;4978204;28;20074;-59
2022/06/08 00:41:17;;;;;;;7.28;3.75;;;;;;;;;;4979923;28;20082;-64
2022/06/08 00:43:50;;;;;;;8.23;3.75;;;;;;;;;;4978878;28;20089;-64
2022/06/08 00:46:23;;;;;;;6.18;4.00;;;;;;;;;;4983949;28;20105;-59
2022/06/08 00:48:52;;;;;;;12.57;4.38;;;;;;;;;;4985994;28;20086;-59
2022/06/08 00:51:18;;;;;;;9.60;3.97;;;;;;;;;;4983654;28;20081;-59
2022/06/08 00:53:57;;;;;;;7.85;3.85;;;;;;;;;;4978672;28;20109;-59
2022/06/08 00:56:27;;;;;;;6.93;4.05;;;;;;;;;;4982955;28;20082;-59
2022/06/08 00:59:02;;;;;;;5.80;3.80;;;;;;;;;;4979419;28;20426;-59
2022/06/08 01:01:28;;;;;;;6.88;3.85;;;;;;;;;;4983357;28;20092;-60
2022/06/08 01:04:24;;;;;;;13.05;4.53;;;;;;;;;;4979198;28;20369;-50
2022/06/08 01:06:57;;;;;;;11.32;3.65;;;;;;;;;;4970358;28;20097;-59
2022/06/08 01:09:27;;;;;;;10.60;3.70;;;;;;;;;;4979995;28;20091;-60
2022/06/08 01:11:55;;;;;;;9.15;3.60;;;;;;;;;;4980430;28;20104;-59
2022/06/08 01:14:29;;;;;;;9.07;3.60;;;;;;;;;;4980794;28;20096;-59
2022/06/08 01:16:58;;;;;;;9.07;3.80;;;;;;;;;;4982184;28;20522;-59
2022/06/08 01:19:25;;;;;;;6.25;3.47;;;;;;;;;;4980017;28;20097;-52
2022/06/08 01:21:59;;;;;;;16.27;3.60;;;;;;;;;;4979601;28;20101;-63
2022/06/08 01:24:27;;;;;;;8.77;3.33;;;;;;;;;;4977651;28;20054;-59
2022/06/08 01:26:58;;;;;;;10.32;3.80;;;;;;;;;;4978199;28;20058;-59
2022/06/08 01:29:35;;;;;;;7.45;3.35;;;;;;;;;;4978635;28;20506;-59
2022/06/08 01:32:07;;;;;;;14.50;4.10;;;;;;;;;;4980783;28;20116;-59
2022/06/08 01:35:00;;;;;;;5.43;3.50;;;;;;;;;;4979658;28;20055;-59
2022/06/08 01:37:35;;;;;;;5.97;3.45;;;;;;;;;;4971077;28;20054;-59
2022/06/08 01:40:32;;;;;;;8.50;3.88;;;;;;;;;;4979192;28;20082;-45
2022/06/08 01:43:02;;;;;;;8.50;3.47;;;;;;;;;;4937466;28;20121;-59
2022/06/08 01:45:44;;;;;;;7.05;3.35;;;;;;;;;;4980881;28;20089;-59
2022/06/08 01:48:10;;;;;;;11.40;3.60;;;;;;;;;;4979851;28;20204;-59
2022/06/08 01:50:54;;;;;;;7.75;3.20;;;;;;;;;;4980023;28;20089;-59
2022/06/08 01:53:21;;;;;;;11.40;4.10;;;;;;;;;;4980305;28;20082;-59
2022/06/08 01:56:17;;;;;;;7.63;3.50;;;;;;;;;;4981386;28;20675;-59
2022/06/08 01:58:44;;;;;;;8.40;3.35;;;;;;;;;;4967504;28;20140;-59
2022/06/08 02:01:26;;;;;;;4.93;3.10;;;;;;;;;;4979885;28;20090;-59
2022/06/08 02:04:03;;;;;;;3.85;2.70;;;;;;;;;;4979112;28;20060;-59
2022/06/08 02:06:37;;;;;;;7.03;3.33;;;;;;;;;;4981430;28;20497;-60
2022/06/08 02:09:07;;;;;;;8.13;3.08;;;;;;;;;;4980757;28;20059;-60
2022/06/08 02:11:43;;;;;;;7.45;3.40;;;;;;;;;;4980268;28;20112;-59
2022/06/08 02:14:23;;;;;;;7.65;3.30;;;;;;;;;;4979831;28;20090;-59
2022/06/08 02:17:04;;;;;;;6.40;3.28;;;;;;;;;;4981201;28;20580;-65
2022/06/08 02:20:16;;;;;;;9.98;3.42;;;;;;;;;;4979240;28;20234;-58
2022/06/08 02:23:01;;;;;;;5.82;3.15;;;;;;;;;;4886264;29;20095;-51
2022/06/08 02:25:46;;;;;;;6.18;3.35;;;;;;;;;;4891074;29;20103;-52
2022/06/08 02:28:18;;;;;;;8.23;3.23;;;;;;;;;;4955116;28;20548;-52
2022/06/08 02:30:56;;;;;;;6.80;3.13;;;;;;;;;;4980311;28;20149;-51
2022/06/08 02:36:36;;;;;;;5.97;2.80;;;;;;;;;;4979895;28;20087;-50
2022/06/08 02:39:14;;;;;;;8.35;3.80;;;;;;;;;;4977353;28;20102;-58
2022/06/08 02:41:49;;;;;;;5.18;3.55;;;;;;;;;;4978493;28;20051;-70
2022/06/08 02:44:18;;;;;;;7.63;3.55;;;;;;;;;;4980150;28;20086;-75
2022/06/08 02:47:00;;;;;;;6.50;3.50;;;;;;;;;;4976639;28;20093;-67
2022/06/08 02:49:35;;;;;;;9.20;3.55;;;;;;;;;;4980074;28;20093;-66
2022/06/08 02:52:03;;;;;;;7.20;3.80;;;;;;;;;;4978674;28;20062;-70
2022/06/08 02:54:30;;;;;;;6.10;3.40;;;;;;;;;;4983438;28;20051;-60
2022/06/08 02:57:32;;;;;;;7.22;3.28;;;;;;;;;;4979315;28;20050;-46
2022/06/08 03:00:02;;;;;;;8.02;3.78;;;;;;;;;;4918507;28;20151;-59
2022/06/08 03:02:53;;;;;;;7.32;3.40;;;;;;;;;;4966649;28;20479;-61
2022/06/08 03:05:25;;;;;;;9.27;3.90;;;;;;;;;;4976515;28;20521;-60
2022/06/08 03:08:19;;;;;;;5.57;3.17;;;;;;;;;;4969943;28;20090;-60
2022/06/08 03:10:46;;;;;;;6.20;3.10;;;;;;;;;;4974131;28;20470;-59
2022/06/08 03:13:22;;;;;;;4.38;3.05;;;;;;;;;;4979524;28;20077;-60
2022/06/08 03:15:57;;;;;;;5.07;3.35;;;;;;;;;;4978703;28;20133;-67
2022/06/08 03:18:30;;;;;;;4.32;2.95;;;;;;;;;;4979184;28;20054;-48
2022/06/08 03:20:57;;;;;;;3.63;2.97;;;;;;;;;;4977810;28;20112;-45
2022/06/08 03:23:23;;;;;;;9.57;3.13;;;;;;;;;;4976215;28;20050;-44
2022/06/08 03:25:57;;;;;;;5.07;2.60;;;;;;;;;;4976115;28;20062;-48
2022/06/08 03:28:24;;;;;;;8.85;3.10;;;;;;;;;;4979435;28;20082;-45
2022/06/08 03:30:50;;;;;;;13.05;3.30;;;;;;;;;;4979563;28;20089;-47
2022/06/08 03:33:24;;;;;;;5.43;2.65;;;;;;;;;;4978566;28;20043;-59
2022/06/08 03:36:03;;;;;;;3.25;2.28;;;;;;;;;;4977302;28;20069;-49
2022/06/08 03:38:37;;;;;;;4.25;2.60;;;;;;;;;;4958666;28;20055;-47
2022/06/08 03:41:04;;;;;;;6.63;3.00;;;;;;;;;;4956530;28;20150;-46
2022/06/08 03:43:30;;;;;;;3.13;2.30;;;;;;;;;;4958593;28;20471;-52
2022/06/08 03:46:05;;;;;;;5.60;2.70;;;;;;;;;;4957064;28;20054;-47
2022/06/08 03:48:33;;;;;;;4.25;2.75;;;;;;;;;;4958852;28;20077;-50
2022/06/08 03:51:00;;;;;;;5.50;3.00;;;;;;;;;;4958349;28;20090;-49
2022/06/08 03:53:54;;;;;;;5.38;3.00;;;;;;;;;;4959774;28;20051;-61
2022/06/08 03:56:21;;;;;;;6.32;3.00;;;;;;;;;;4958784;28;20067;-54
2022/06/08 03:58:56;;;;;;;6.18;2.90;;;;;;;;;;4957199;28;20098;-55
2022/06/08 04:01:23;;;;;;;6.82;3.22;;;;;;;;;;4956407;28;20054;-55
2022/06/08 04:03:52;;;;;;;6.65;3.30;;;;;;;;;;4958889;28;20541;-53
2022/06/08 04:06:25;;;;;;;3.67;2.40;;;;;;;;;;4960542;28;20614;-55
2022/06/08 04:08:52;;;;;;;4.13;2.57;;;;;;;;;;4955542;28;20090;-53
2022/06/08 04:11:19;;;;;;;4.60;3.00;;;;;;;;;;4958514;28;20294;-59
2022/06/08 04:13:52;;;;;;;7.32;2.72;;;;;;;;;;4958626;28;20055;-60
2022/06/08 04:16:19;;;;;;;4.97;3.10;;;;;;;;;;4956769;28;20190;-59
2022/06/08 04:18:46;;;;;;;4.15;3.22;;;;;;;;;;4958498;28;20055;-59
2022/06/08 04:21:19;;;;;;;4.45;3.17;;;;;;;;;;4958176;28;20174;-59
2022/06/08 04:23:47;;;;;;;6.25;3.30;;;;;;;;;;4955738;28;20079;-59
2022/06/08 04:26:14;;;;;;;4.68;2.90;;;;;;;;;;4943392;28;20702;-59
2022/06/08 04:28:47;;;;;;;5.45;3.30;;;;;;;;;;4958076;28;20113;-59
2022/06/08 04:31:14;;;;;;;6.18;3.72;;;;;;;;;;4959221;28;20083;-61
2022/06/08 04:33:40;;;;;;;5.25;3.33;;;;;;;;;;4958077;28;20519;-55
2022/06/08 04:36:21;;;;;;;6.38;3.35;;;;;;;;;;4958181;28;20082;-49
2022/06/08 04:38:48;;;;;;;6.40;3.35;;;;;;;;;;4978409;28;20105;-55
2022/06/08 04:41:21;;;;;;;4.18;3.05;;;;;;;;;;4976407;28;20109;-53
2022/06/08 04:43:48;;;;;;;13.73;3.70;;;;;;;;;;4976768;28;20042;-52
2022/06/08 04:46:16;;;;;;;12.02;3.70;;;;;;;;;;4976128;28;20102;-52
2022/06/08 04:48:49;;;;;;;12.80;3.80;;;;;;;;;;4978107;28;20051;-49
2022/06/08 04:51:16;;;;;;;5.10;3.70;;;;;;;;;;4973591;28;20121;-60
2022/06/08 04:53:43;;;;;;;7.87;3.80;;;;;;;;;;4975425;28;20333;-59
2022/06/08 04:56:17;;;;;;;10.05;3.70;;;;;;;;;;4975025;28;20058;-59
2022/06/08 04:58:43;;;;;;;8.00;4.10;;;;;;;;;;4976039;28;20156;-59
2022/06/08 05:01:10;;;;;;;9.55;4.18;;;;;;;;;;4974824;28;20062;-60
2022/06/08 05:03:43;;;;;;;11.50;4.13;;;;;;;;;;4981833;28;20050;-59
2022/06/08 05:06:10;;;;;;;8.65;4.05;;;;;;;;;;4978262;28;20097;-59
2022/06/08 05:08:36;;;;;;;13.90;3.80;;;;;;;;;;4983861;28;20120;-58
2022/06/08 05:11:17;;;;;;;5.22;3.50;;;;;;;;;;4979901;28;20557;-52
2022/06/08 05:13:46;;;;;;;4.80;3.60;;;;;;;;;;4978705;28;20050;-49
2022/06/08 05:16:19;;;;;;;7.32;3.63;;;;;;;;;;4979085;28;20046;-49
2022/06/08 05:18:45;;;;;;;9.18;4.05;;;;;;;;;;4979933;28;20050;-50
2022/06/08 05:21:12;;;;;;;7.80;4.20;;;;;;;;;;4978225;28;20462;-48
2022/06/08 05:23:45;;;;;;;11.63;3.55;;;;;;;;;;4981507;28;20125;-51
2022/06/08 05:26:12;;;;;;;5.15;3.65;;;;;;;;;;4979320;28;20046;-49
2022/06/08 05:28:39;;;;;;;10.20;4.10;;;;;;;;;;4981489;28;20590;-51
2022/06/08 05:31:13;;;;;;;6.88;3.85;;;;;;;;;;4980480;28;20643;-69
2022/06/08 05:33:40;;;;;;;9.23;3.72;;;;;;;;;;4981049;28;20494;-68
2022/06/08 05:36:06;;;;;;;6.25;3.70;;;;;;;;;;4977809;28;20078;-67
2022/06/08 05:38:46;;;;;;;6.72;4.10;;;;;;;;;;4980543;28;20091;-68
2022/06/08 05:41:13;;;;;;;7.75;3.38;;;;;;;;;;4981063;28;20157;-68
2022/06/08 05:43:39;;;;;;;6.78;3.58;;;;;;;;;;4983334;28;20082;-68
2022/06/08 05:46:13;;;;;;;7.93;3.78;;;;;;;;;;4980952;28;20110;-55
2022/06/08 05:48:39;;;;;;;12.40;4.20;;;;;;;;;;4978923;28;20061;-56
2022/06/08 05:51:06;;;;;;;8.45;4.15;;;;;;;;;;4978872;28;20086;-62
2022/06/08 05:53:39;;;;;;;8.82;3.67;;;;;;;;;;4980038;28;20121;-61
2022/06/08 05:56:06;;;;;;;7.13;3.65;;;;;;;;;;4979525;28;20148;-62
2022/06/08 05:58:32;;;;;;;6.47;3.45;;;;;;;;;;4982478;28;20090;-62
2022/06/08 06:01:05;;;;;;;8.68;3.75;;;;;;;;;;4979883;28;20089;-61
2022/06/08 06:03:32;;;;;;;6.17;3.43;;;;;;;;;;4979930;28;20054;-61
2022/06/08 06:05:58;;;;;;;12.13;3.50;;;;;;;;;;4979418;28;20059;-48
2022/06/08 06:08:32;;;;;;;5.00;3.25;;;;;;;;;;4980118;28;20093;-48
2022/06/08 06:11:05;;;;;;;7.47;3.95;;;;;;;;;;4980561;28;20090;-59
2022/06/08 06:13:39;;;;;;;10.02;3.33;;;;;;;;;;4979146;28;20134;-59
2022/06/08 06:16:12;;;;;;;10.45;3.40;;;;;;;;;;4975568;28;20586;-59
2022/06/08 06:18:46;;;;;;;8.07;3.45;;;;;;;;;;4985638;28;20138;-59
2022/06/08 06:21:15;;;;;;;11.70;3.63;;;;;;;;;;4981503;28;20068;-59
2022/06/08 06:23:41;;;;;;;10.55;4.00;;;;;;;;;;4983415;28;20082;-60
2022/06/08 06:26:15;;;;;;;6.72;3.10;;;;;;;;;;4978034;28;20050;-50
2022/06/08 06:28:42;;;;;;;8.70;3.33;;;;;;;;;;4979022;28;20522;-60
2022/06/08 06:31:14;;;;;;;8.80;3.45;;;;;;;;;;4979924;28;20054;-61
2022/06/08 06:33:47;;;;;;;9.73;3.58;;;;;;;;;;4979342;28;20062;-60
2022/06/08 06:36:20;;;;;;;9.38;3.58;;;;;;;;;;4978691;28;20093;-60
2022/06/08 06:39:01;;;;;;;6.30;3.60;;;;;;;;;;4986801;28;20093;-60
2022/06/08 06:41:28;;;;;;;5.32;3.22;;;;;;;;;;4978924;28;20085;-61
2022/06/08 06:44:01;;;;;;;9.55;3.85;;;;;;;;;;4981214;28;20086;-61
2022/06/08 06:46:28;;;;;;;4.95;3.33;;;;;;;;;;4976067;28;20514;-60
2022/06/08 06:48:54;;;;;;;3.75;3.03;;;;;;;;;;4977155;28;20132;-61
2022/06/08 06:51:31;;;;;;;10.70;3.60;;;;;;;;;;4978604;28;20046;-63
2022/06/08 06:53:57;;;;;;;8.73;3.40;;;;;;;;;;4978556;28;20148;-62
2022/06/08 06:56:24;;;;;;;6.25;3.03;;;;;;;;;;4979440;28;20489;-63
2022/06/08 06:58:57;;;;;;;7.07;3.08;;;;;;;;;;4980232;28;20137;-63
2022/06/08 07:01:23;;;;;;;9.15;3.17;;;;;;;;;;4978026;28;20499;-62
2022/06/08 07:03:50;;;;;;;7.30;2.67;;;;;;;;;;4980004;28;20134;-60
2022/06/08 07:06:23;;;;;;;5.13;2.75;;;;;;;;;;4980038;28;20082;-60
2022/06/08 07:08:49;;;;;;;4.00;2.83;;;;;;;;;;4981159;28;20114;-60
2022/06/08 07:11:40;;;;;;;5.28;2.80;;;;;;;;;;4976688;28;20055;-60
2022/06/08 07:14:19;;;;;;;4.82;3.03;;;;;;;;;;4983403;28;20058;-60
2022/06/08 07:16:46;;;;;;;4.53;2.72;;;;;;;;;;4963068;28;20097;-61
2022/06/08 07:19:20;;;;;;;4.85;3.20;;;;;;;;;;4975653;28;20565;-61
2022/06/08 07:21:47;;;;;;;6.50;3.40;;;;;;;;;;4980885;28;20592;-57
2022/06/08 07:24:18;;;;;;;6.78;2.80;;;;;;;;;;4981165;28;20290;-53
2022/06/08 07:26:51;;;;;;;5.05;2.75;;;;;;;;;;4979219;28;20054;-62
2022/06/08 07:29:18;;;;;;;4.15;3.13;;;;;;;;;;4979336;28;20081;-62
2022/06/08 07:31:44;;;;;;;4.05;3.10;;;;;;;;;;4978616;28;20124;-61
2022/06/08 07:34:17;;;;;;;4.28;2.78;;;;;;;;;;4980654;28;20054;-62
2022/06/08 07:36:50;;;;;;;4.38;2.72;;;;;;;;;;4980190;28;20499;-62
2022/06/08 07:39:31;;;;;;;6.80;2.90;;;;;;;;;;4978786;28;20098;-62
2022/06/08 07:41:57;;;;;;;8.00;3.17;;;;;;;;;;4981261;28;20147;-55
2022/06/08 07:44:31;;;;;;;5.22;3.00;;;;;;;;;;4978626;28;20141;-55
2022/06/08 07:46:58;;;;;;;5.82;3.25;;;;;;;;;;4976534;28;20113;-57
2022/06/08 07:49:37;;;;;;;6.85;3.25;;;;;;;;;;4976803;28;20526;-56
2022/06/08 07:52:14;;;;;;;5.57;3.22;;;;;;;;;;4978695;28;20093;-53
2022/06/08 07:54:41;;;;;;;6.45;3.60;;;;;;;;;;4976094;28;20121;-56
2022/06/08 07:57:11;;;;;;;5.82;3.35;;;;;;;;;;4976839;28;20097;-53
2022/06/08 07:59:45;;;;;;;7.32;3.65;;;;;;;;;;4977510;28;20505;-67
2022/06/08 08:02:12;;;;;;;5.30;3.58;;;;;;;;;;4981153;28;20055;-59
2022/06/08 08:04:38;;;;;;;7.87;3.50;;;;;;;;;;4979570;28;20161;-59
2022/06/08 08:07:12;;;;;;;11.75;3.83;;;;;;;;;;4976470;28;20477;-58
2022/06/08 08:09:38;;;;;;;8.70;3.67;;;;;;;;;;4977060;28;20055;-59
2022/06/08 08:12:05;;;;;;;9.23;4.47;;;;;;;;;;4980255;28;20149;-59
2022/06/08 08:14:39;;;;;;;12.45;4.00;;;;;;;;;;4978374;28;20066;-59
2022/06/08 08:17:06;;;;;;;7.07;4.10;;;;;;;;;;4974469;28;20054;-59
2022/06/08 08:19:32;;;;;;;4.63;3.27;;;;;;;;;;4977705;28;20094;-68
2022/06/08 08:22:07;;;;;;;8.52;3.75;;;;;;;;;;4979507;28;20136;-59
2022/06/08 08:24:33;;;;;;;7.00;4.13;;;;;;;;;;4977037;28;20089;-63
2022/06/08 08:27:00;;;;;;;7.60;3.75;;;;;;;;;;4977313;28;20058;-63
2022/06/08 08:29:34;;;;;;;7.95;3.83;;;;;;;;;;4978250;28;20113;-62
2022/06/08 08:32:02;;;;;;;8.60;4.00;;;;;;;;;;4976362;28;20089;-62
2022/06/08 08:34:28;;;;;;;8.65;3.75;;;;;;;;;;4974436;28;20122;-62
2022/06/08 08:37:07;;;;;;;8.23;3.60;;;;;;;;;;4977961;28;20078;-61
2022/06/08 08:39:40;;;;;;;6.18;3.17;;;;;;;;;;4983360;28;20086;-59
2022/06/08 08:42:21;;;;;;;10.02;3.63;;;;;;;;;;4984892;28;20089;-60
2022/06/08 08:44:54;;;;;;;8.35;3.60;;;;;;;;;;4983007;28;20490;-60
2022/06/08 08:47:46;;;;;;;8.50;3.47;;;;;;;;;;4980654;28;20049;-60
2022/06/08 08:50:22;;;;;;;8.02;3.20;;;;;;;;;;4981969;28;20561;-60
2022/06/08 08:52:58;;;;;;;5.70;3.42;;;;;;;;;;4979619;28;20498;-60
2022/06/08 08:55:25;;;;;;;7.30;3.78;;;;;;;;;;4983230;28;20105;-60
2022/06/08 08:58:07;;;;;;;8.38;3.85;;;;;;;;;;4982714;28;20082;-58
2022/06/08 09:00:47;;;;;;;7.97;4.00;;;;;;;;;;4977053;28;20118;-49
2022/06/08 09:03:31;;;;;;;11.82;3.78;;;;;;;;;;4981251;28;20081;-51
2022/06/08 09:06:12;;;;;;;12.32;3.70;;;;;;;;;;4982164;28;20514;-51
2022/06/08 09:08:40;;;;;;;8.02;3.15;;;;;;;;;;4979470;28;20054;-49
2022/06/08 09:11:16;;;;;;;12.82;4.47;;;;;;;;;;4980675;28;20047;-47
2022/06/08 09:13:48;;;;;;;7.47;3.30;;;;;;;;;;4982848;28;20050;-47
2022/06/08 09:16:26;;;;;;;6.68;3.60;;;;;;;;;;4981186;28;20054;-61
2022/06/08 09:18:53;;;;;;;7.55;3.70;;;;;;;;;;4978466;28;20078;-56
2022/06/08 09:21:31;;;;;;;7.72;3.55;;;;;;;;;;4979035;28;20098;-60
2022/06/08 09:24:09;;;;;;;6.63;3.92;;;;;;;;;;4978086;28;20081;-60
2022/06/08 09:26:39;;;;;;;6.60;3.47;;;;;;;;;;4981198;28;20058;-60
2022/06/08 09:29:20;;;;;;;4.30;3.30;;;;;;;;;;4981598;28;20051;-61
2022/06/08 09:31:47;;;;;;;6.80;3.13;;;;;;;;;;4980280;28;20054;-61
2022/06/08 09:34:21;;;;;;;13.18;3.63;;;;;;;;;;4980616;28;20137;-61
2022/06/08 09:37:12;;;;;;;8.48;3.22;;;;;;;;;;4980776;28;20110;-62
2022/06/08 09:39:46;;;;;;;11.18;3.88;;;;;;;;;;4981859;28;20058;-46
2022/06/08 09:42:34;;;;;;;9.32;3.13;;;;;;;;;;4981503;28;20148;-49
2022/06/08 09:45:29;;;;;;;11.63;3.65;;;;;;;;;;4977341;28;20090;-47
2022/06/08 09:51:28;;;;;;;6.63;3.00;;;;;;;;;;4980880;28;20125;-47
2022/06/08 09:54:03;;;;;;;10.40;3.65;;;;;;;;;;4981704;28;20891;-59
2022/06/08 09:56:39;;;;;;;9.23;3.70;;;;;;;;;;4979386;28;20580;-61
2022/06/08 09:59:19;;;;;;;8.55;3.95;;;;;;;;;;4977633;28;20050;-60
2022/06/08 10:01:55;;;;;;;11.68;3.95;;;;;;;;;;4979784;28;20101;-59
2022/06/08 10:04:26;;;;;;;6.78;3.78;;;;;;;;;;4980187;28;20046;-60
2022/06/08 10:07:15;;;;;;;9.82;3.90;;;;;;;;;;4980722;28;20081;-60
2022/06/08 10:09:47;;;;;;;8.77;4.00;;;;;;;;;;4979767;28;20189;-60
2022/06/08 10:12:22;;;;;;;12.02;3.60;;;;;;;;;;4979077;28;20086;-59
2022/06/08 10:14:55;;;;;;;21.60;3.92;;;;;;;;;;4979982;28;20059;-48
2022/06/08 10:17:41;;;;;;;8.73;3.10;;;;;;;;;;4980129;28;20050;-61
2022/06/08 10:20:26;;;;;;;8.30;3.80;;;;;;;;;;4980545;28;20560;-60
2022/06/08 10:23:01;;;;;;;6.68;3.53;;;;;;;;;;4979783;28;21077;-62
2022/06/08 10:25:30;;;;;;;12.27;3.97;;;;;;;;;;4980318;28;20074;-61
2022/06/08 10:28:02;;;;;;;10.68;3.78;;;;;;;;;;4977959;28;20113;-61
2022/06/08 10:30:51;;;;;;;7.93;3.40;;;;;;;;;;4979717;28;20082;-62
2022/06/08 10:33:21;;;;;;;8.07;4.18;;;;;;;;;;4983560;28;20514;-60
2022/06/08 10:35:55;;;;;;;7.50;3.63;;;;;;;;;;4976856;28;20104;-59
2022/06/08 10:38:36;;;;;;;10.38;3.78;;;;;;;;;;4980037;28;20106;-59
2022/06/08 10:43:58;;;;;;;21.45;3.83;;;;;;;;;;4980748;28;20058;-58
2022/06/08 10:46:42;;;;;;;10.88;3.83;;;;;;;;;;4979406;28;20054;-56
2022/06/08 10:49:28;;;;;;;6.72;3.30;;;;;;;;;;4977175;28;20059;-58
2022/06/08 10:52:19;;;;;;;8.68;3.72;;;;;;;;;;4977692;28;20062;-53
2022/06/08 10:54:54;;;;;;;10.48;4.25;;;;;;;;;;4979058;28;20129;-67
2022/06/08 10:57:31;;;;;;;11.25;3.88;;;;;;;;;;4978825;28;20518;-68
2022/06/08 11:00:21;;;;;;;10.02;3.60;;;;;;;;;;4964816;28;20057;-68
2022/06/08 11:02:58;;;;;;;11.15;4.03;;;;;;;;;;4968696;28;20061;-65
2022/06/08 11:05:28;;;;;;;9.00;3.72;;;;;;;;;;4977158;28;20082;-67
2022/06/08 11:08:01;;;;;;;8.93;3.38;;;;;;;;;;4979363;28;20098;-66
2022/06/08 11:10:51;;;;;;;16.80;4.97;;;;;;;;;;4979040;28;20086;-59
2022/06/08 11:13:27;;;;;;;10.63;4.30;;;;;;;;;;4977241;28;20466;-67
2022/06/08 11:16:12;;;;;;;8.32;3.80;;;;;;;;;;4978439;28;20089;-48
2022/06/08 11:18:58;;;;;;;16.65;4.28;;;;;;;;;;4977809;28;20050;-49
2022/06/08 11:21:26;;;;;;;13.75;3.92;;;;;;;;;;4980087;28;20132;-48
2022/06/08 11:24:01;;;;;;;10.55;4.32;;;;;;;;;;4981151;28;20082;-50
2022/06/08 11:26:48;;;;;;;8.38;4.05;;;;;;;;;;4977661;28;20093;-49
2022/06/08 11:29:31;;;;;;;11.35;3.35;;;;;;;;;;4979411;28;20058;-46
2022/06/08 11:31:58;;;;;;;8.02;3.70;;;;;;;;;;4978609;28;20116;-46
2022/06/08 11:34:31;;;;;;;9.00;3.72;;;;;;;;;;4979334;28;20054;-65
2022/06/08 11:37:20;;;;;;;15.05;3.90;;;;;;;;;;4979526;28;20145;-65
2022/06/08 11:40:21;;;;;;;15.18;4.25;;;;;;;;;;4980588;28;20109;-62
2022/06/08 11:42:55;;;;;;;12.80;3.53;;;;;;;;;;4976102;28;20112;-63
2022/06/08 11:45:35;;;;;;;7.90;3.67;;;;;;;;;;4981096;28;20097;-63
2022/06/08 11:48:17;;;;;;;13.63;4.10;;;;;;;;;;4980328;28;20066;-55
2022/06/08 11:50:58;;;;;;;13.40;4.35;;;;;;;;;;4977686;28;20090;-63
2022/06/08 11:53:24;;;;;;;12.40;4.03;;;;;;;;;;4979627;28;20093;-63
2022/06/08 11:56:07;;;;;;;14.77;4.20;;;;;;;;;;4977940;28;20053;-63
2022/06/08 11:58:35;;;;;;;11.98;4.80;;;;;;;;;;4977285;28;20141;-64
2022/06/08 12:01:09;;;;;;;13.82;4.10;;;;;;;;;;4978182;28;20078;-63
2022/06/08 12:03:42;;;;;;;10.52;4.03;;;;;;;;;;4975710;28;20082;-64
2022/06/08 12:06:27;;;;;;;14.93;4.45;;;;;;;;;;4979680;28;20051;-63
2022/06/08 12:09:14;;;;;;;10.52;4.13;;;;;;;;;;4977333;28;20058;-55
2022/06/08 12:11:58;;;;;;;10.93;4.45;;;;;;;;;;4981132;28;20454;-64
2022/06/08 12:14:29;;;;;;;13.90;4.30;;;;;;;;;;4979583;28;20089;-64
2022/06/08 12:17:14;;;;;;;12.55;4.65;;;;;;;;;;4982797;28;20058;-64
2022/06/08 12:19:41;;;;;;;10.88;4.57;;;;;;;;;;4981799;28;20104;-64
2022/06/08 12:22:16;;;;;;;7.10;4.80;;;;;;;;;;4985016;28;20062;-63
2022/06/08 12:24:43;;;;;;;15.18;4.63;;;;;;;;;;4981913;28;20623;-65
2022/06/08 12:27:21;;;;;;;8.38;5.00;;;;;;;;;;4982042;28;20477;-49
2022/06/08 12:29:58;;;;;;;10.35;4.25;;;;;;;;;;4978744;28;20353;-58
2022/06/08 12:32:34;;;;;;;12.05;4.97;;;;;;;;;;4979632;28;20140;-67
2022/06/08 12:35:21;;;;;;;10.20;5.15;;;;;;;;;;4982279;28;20097;-70
2022/06/08 12:38:11;;;;;;;9.13;4.20;;;;;;;;;;4977419;28;20094;-68
2022/06/08 12:41:02;;;;;;;8.90;4.18;;;;;;;;;;4983258;28;20396;-68
2022/06/08 12:43:36;;;;;;;7.40;3.60;;;;;;;;;;4985147;28;20058;-68
2022/06/08 12:46:13;;;;;;;12.30;3.83;;;;;;;;;;4981456;28;20514;-61
2022/06/08 12:48:46;;;;;;;8.27;3.42;;;;;;;;;;4977982;28;20062;-53
2022/06/08 12:51:34;;;;;;;17.27;3.45;;;;;;;;;;4979372;28;20501;-58
2022/06/08 12:54:11;;;;;;;15.60;3.42;;;;;;;;;;4979130;28;20734;-58
2022/06/08 12:56:46;;;;;;;8.63;2.92;;;;;;;;;;4979713;28;20137;-59
2022/06/08 12:59:13;;;;;;;16.48;2.85;;;;;;;;;;4981889;28;20125;-58
2022/06/08 13:01:41;;;;;;;8.30;2.60;;;;;;;;;;4976879;28;20619;-58
2022/06/08 13:04:17;;;;;;;10.80;2.92;;;;;;;;;;4982945;28;20474;-64
2022/06/08 13:06:43;;;;;;;10.35;3.05;;;;;;;;;;4979308;28;20054;-47
2022/06/08 13:09:11;;;;;;;13.82;3.15;;;;;;;;;;4980667;28;20699;-60
2022/06/08 13:11:45;;;;;;;9.40;3.13;;;;;;;;;;4979980;28;20085;-60
2022/06/08 13:14:12;;;;;;;;;;;;;;;;;;4985242;28;20105;-60
2022/06/08 13:16:38;;;;;;;10.02;3.20;;;;;;;;;;4979780;28;20004;-60
2022/06/08 13:19:13;;;;;;;8.88;3.15;;;;;;;;;;4980048;28;20050;-60
2022/06/08 13:21:41;;;;;;;9.73;3.03;;;;;;;;;;4979358;28;20589;-60
2022/06/08 13:24:09;;;;;;;8.90;3.40;;;;;;;;;;4983520;28;20082;-60
2022/06/08 13:26:43;;;;;;;5.40;2.95;;;;;;;;;;4980136;28;20073;-53
2022/06/08 13:29:11;;;;;;;8.15;2.83;;;;;;;;;;4982463;28;20470;-48
2022/06/08 13:31:37;;;;;;;4.70;2.95;;;;;;;;;;4980399;28;20054;-46
2022/06/08 13:34:12;;;;;;;11.25;3.20;;;;;;;;;;4979721;28;20114;-47
2022/06/08 13:36:50;;;;;;;6.15;2.63;;;;;;;;;;4980170;28;20534;-50
2022/06/08 13:39:41;;;;;;;5.05;3.00;;;;;;;;;;4977518;28;20054;-48
2022/06/08 13:42:12;;;;;;;7.35;3.10;;;;;;;;;;4981924;28;20046;-47
2022/06/08 13:44:50;;;;;;;4.30;2.67;;;;;;;;;;4979388;28;20050;-55
2022/06/08 13:47:19;;;;;;;4.40;3.08;;;;;;;;;;4981643;28;20545;-69
2022/06/08 13:49:55;;;;;;;6.22;2.60;;;;;;;;;;4982373;28;20054;-68
2022/06/08 13:52:27;;;;;;;6.78;2.90;;;;;;;;;;4975632;28;20054;-68
2022/06/08 13:55:03;;;;;;;3.53;2.55;;;;;;;;;;4979412;28;20062;-67
2022/06/08 13:57:31;;;;;;;5.65;2.95;;;;;;;;;;4981185;28;20054;-67
2022/06/08 13:59:57;;;;;;;;;;;;;;;;;;4978399;28;20082;-67
2022/06/08 14:02:37;;;;;;;5.28;2.80;;;;;;;;;;4979935;28;19956;-59
2022/06/08 14:05:04;;;;;;;7.38;2.95;;;;;;;;;;4979924;28;20058;-62
2022/06/08 14:13:32;;;;;;;5.82;3.13;;;;;;;;;;4975423;28;20081;-66
2022/06/08 14:16:05;;;;;;;8.07;3.50;;;;;;;;;;4976225;28;20058;-66
2022/06/08 14:18:40;;;;;;;6.53;3.50;;;;;;;;;;4975592;28;20062;-66
2022/06/08 14:21:13;;;;;;;6.07;3.47;;;;;;;;;;4976515;28;20366;-59
2022/06/08 14:23:43;;;;;;;6.80;3.40;;;;;;;;;;4975676;28;20146;-46
2022/06/08 14:26:13;;;;;;;5.20;3.60;;;;;;;;;;4977353;28;20086;-66
2022/06/08 14:28:51;;;;;;;7.45;3.40;;;;;;;;;;4976953;28;20057;-66
2022/06/08 14:31:20;;;;;;;6.38;3.90;;;;;;;;;;4960559;28;20116;-65
2022/06/08 14:33:53;;;;;;;7.97;3.83;;;;;;;;;;4978665;28;20509;-66
2022/06/08 14:36:22;;;;;;;6.55;3.90;;;;;;;;;;4976037;28;20538;-65
2022/06/08 14:39:08;;;;;;;;;;;;;;;;;;4977893;28;20058;-65
2022/06/08 14:41:42;;;;;;;10.93;4.25;;;;;;;;;;4976008;28;19960;-63
2022/06/08 14:44:12;;;;;;;14.77;4.20;;;;;;;;;;4975079;28;20066;-60
2022/06/08 14:46:47;;;;;;;7.00;3.83;;;;;;;;;;4977773;28;20593;-61
2022/06/08 14:49:22;;;;;;;8.38;4.03;;;;;;;;;;4976261;28;20395;-60
2022/06/08 14:51:49;;;;;;;7.20;3.60;;;;;;;;;;4977630;28;20060;-60
2022/06/08 14:54:18;;;;;;;9.27;3.90;;;;;;;;;;4978022;28;20054;-60
2022/06/08 14:56:58;;;;;;;8.13;4.00;;;;;;;;;;4974482;28;20089;-62
2022/06/08 14:59:25;;;;;;;7.05;3.90;;;;;;;;;;4973577;28;20106;-64
2022/06/08 15:01:58;;;;;;;9.30;3.50;;;;;;;;;;4973715;28;20089;-61
2022/06/08 15:04:28;;;;;;;6.03;3.50;;;;;;;;;;4974453;28;20047;-55
2022/06/08 15:06:54;;;;;;;6.22;3.00;;;;;;;;;;4979347;28;20305;-56
2022/06/08 15:09:27;;;;;;;5.28;3.47;;;;;;;;;;4977899;28;20050;-57
2022/06/08 15:12:00;;;;;;;7.28;3.60;;;;;;;;;;4976049;28;20137;-57
2022/06/08 15:14:36;;;;;;;7.55;3.58;;;;;;;;;;4977410;28;20102;-58
2022/06/08 15:17:28;;;;;;;6.70;2.88;;;;;;;;;;4977821;28;20081;-57
2022/06/08 15:19:55;;;;;;;9.05;3.15;;;;;;;;;;4976908;28;20811;-57
2022/06/08 15:22:31;;;;;;;14.23;3.17;;;;;;;;;;4977956;28;20110;-51
2022/06/08 15:25:01;;;;;;;4.40;2.65;;;;;;;;;;4980071;28;20106;-53
2022/06/08 15:27:32;;;;;;;9.80;2.10;;;;;;;;;;4978199;28;20102;-54
2022/06/08 15:30:07;;;;;;;4.03;2.53;;;;;;;;;;4980914;28;20133;-51
2022/06/08 15:32:34;;;;;;;3.92;2.42;;;;;;;;;;4979862;28;20054;-51
2022/06/08 15:35:01;;;;;;;5.28;2.40;;;;;;;;;;4980009;28;20070;-52